CheckWX is a tool to help pilots better visualize weather data.  It is not intended as a substitute for an official pre-flight weather briefing.

13:54:39 UTC

KFCH METAR
Fresno Chandler Executive Airport
Fresno, California, USA
Current

13 hours ago

KFCH 110115Z AUTO 00000KT 2 1/2SM BR OVC003 10/10 A3024 RMK A01
Observed
Dec-11 @ 01:15 UTC
Visibility
2 1/2 SM
Flight Rules
LIFR
Conditions
Mist
Cloud Levels
  • Overcast at 300' AGL
Temperature
10°C / 50°F
Dewpoint
10°C / 50°F
Humidity
100%
Altimeter
30.24" Hg
Pressure
1024.02 hPa
Previous

13 hours ago

KFCH 110055Z AUTO 00000KT 2SM BR BKN003 10/10 A3024 RMK A01
Observed
Dec-11 @ 00:55 UTC
Visibility
2 SM
Flight Rules
LIFR
Conditions
Mist
Cloud Levels
  • Broken at 300' AGL
Temperature
10°C / 50°F
Dewpoint
10°C / 50°F
Humidity
100%
Altimeter
30.24" Hg
Pressure
1024.02 hPa
Previous

13 hours ago

KFCH 110035Z AUTO 22004KT 2SM BR 10/10 A3025 RMK A01
Observed
Dec-11 @ 00:35 UTC
Wind
  • 220° at 4 KTS
Visibility
2 SM
Conditions
Mist
Temperature
10°C / 50°F
Dewpoint
10°C / 50°F
Humidity
100%
Altimeter
30.25" Hg
Pressure
1024.42 hPa